Silverdale, PA (18962)

4:51 AM EST on January 30, 2015 (GMT -0500)
Hilltown Township Secondary | Change Station
CLOSE
Current Station
Personal Weather Station
Location: Perkasie, PA
Elevation: 656 ft
Nearby Weather Stations

Elev 656 ft 40.33 °N, 75.26 °W | Updated 21 seconds ago

Overcast
Overcast
26.8 °F
Feels Like 27 °F
N
0.0
Wind Variable Wind from East
Gusts 0.0 mph

Today
High -- | Low -- °F
--% Chance of Precip.
Yesterday
High -- | Low -- °F
Precip. -- in
7:12 AM 5:16 PM
Waxing Gibbous, 81% visible
Pressure 29.85 in
Visibility 10.0 miles
Clouds Scattered Clouds 2500 ft
Mostly Cloudy 3300 ft
Overcast 4800 ft
Windchill 27 °F
Dew Point 24 °F
Humidity 91%
Rainfall 0.00 in
Snow Depth Not available.
UV 0.0 out of 12
Pollen .10 out of 12
Air Quality Not available.
Flu Activity Not available.
SPECI KDYL 300927Z AUTO 00000KT 10SM SCT025 BKN033 OVC048 M02/M03 A2985 RMK AO2 T10221033

More Conditions Fewer Conditions

Pressure 29.85 in
Visibility 10.0 miles
Clouds Scattered Clouds 2500 ft
Mostly Cloudy 3300 ft
Overcast 4800 ft
Windchill 27 °F
Dew Point 24 °F
Humidity 91%
Rainfall 0.00 in
Snow Depth Not available.
UV 0.0 out of 12
Pollen .10 out of 12
Air Quality Not available.
Flu Activity Not available.
SPECI KDYL 300927Z AUTO 00000KT 10SM SCT025 BKN033 OVC048 M02/M03 A2985 RMK AO2 T10221033

More Conditions Fewer Conditions

10-Day Weather Forecast

Almanac

Astronomy

Jan. 30, 2015 Rise Set
Actual Time
Civil Twilight
Nautical Twilight
Astronomical Twilight
Moon
Length of Visible Light
Length of Day
Tomorrow will be .
, % of the Moon is Illuminated

Today's Extremes

State Highs State Lows

Community

WunderPhotos

Upload Photos

1,791,737 photos uploaded!

WunderBlogs® & News

Nearby

Air Quality

  Air Quality AQ Index Pollutant
Not available.

Snow Depth

Station Depth Elevation

Earthquake Activity

City Distance Mag. Time & Date
Minimum magnitude displayed is 2.5.

Coastal Water Temperatures

Place Temperature

Nearby Weather Stations